Time;durP1;ratioP1;P1;durP2;ratioP2;P2;SDS_P1;SDS_P2;PMS_P1;PMS_P2;Temp;Humidity;BMP_temperature;BMP_pressure;BME280_temperature;BME280_humidity;BME280_pressure;Samples;Min_cycle;Max_cycle;Signal;HPM_P1;HPM_P2
2023/05/13 00:00:40;;;;;;;6.00;5.43;;;;;;;;;;5113929;27;20048;-56
2023/05/13 00:03:06;;;;;;;6.68;4.70;;;;;;;;;;5126257;27;20055;-56
2023/05/13 00:05:33;;;;;;;10.02;4.88;;;;;;;;;;5122573;27;20055;-56
2023/05/13 00:08:06;;;;;;;6.07;3.95;;;;;;;;;;5123352;27;20143;-56
2023/05/13 00:10:33;;;;;;;9.65;4.15;;;;;;;;;;5123293;27;20047;-56
2023/05/13 00:12:59;;;;;;;5.95;4.72;;;;;;;;;;5120130;27;20520;-56
2023/05/13 00:15:26;;;;;;;10.48;5.88;;;;;;;;;;5121524;27;20047;-56
2023/05/13 00:17:52;;;;;;;9.50;4.60;;;;;;;;;;5123235;27;20052;-58
2023/05/13 00:20:19;;;;;;;4.85;4.25;;;;;;;;;;5122452;27;20117;-55
2023/05/13 00:22:45;;;;;;;5.20;3.75;;;;;;;;;;5120360;27;20200;-58
2023/05/13 00:25:12;;;;;;;7.90;4.68;;;;;;;;;;5120958;27;20062;-56
2023/05/13 00:27:38;;;;;;;5.40;4.82;;;;;;;;;;5121175;27;20054;-56
2023/05/13 00:30:05;;;;;;;11.18;5.18;;;;;;;;;;5122460;27;20051;-56
2023/05/13 00:32:31;;;;;;;7.47;4.70;;;;;;;;;;5122705;27;20051;-54
2023/05/13 00:34:58;;;;;;;6.53;5.20;;;;;;;;;;5120997;27;20047;-56
2023/05/13 00:37:24;;;;;;;7.18;5.97;;;;;;;;;;5122164;27;20078;-54
2023/05/13 00:39:50;;;;;;;7.18;5.10;;;;;;;;;;5121126;27;20051;-57
2023/05/13 00:42:16;;;;;;;6.43;4.60;;;;;;;;;;5122049;27;20505;-55
2023/05/13 00:44:43;;;;;;;5.97;4.00;;;;;;;;;;5121032;27;20052;-57
2023/05/13 00:47:10;;;;;;;9.27;4.80;;;;;;;;;;5121261;27;20047;-56
2023/05/13 00:49:36;;;;;;;5.07;4.20;;;;;;;;;;5122770;27;20499;-56
2023/05/13 00:52:03;;;;;;;6.25;4.78;;;;;;;;;;5120172;27;20062;-58
2023/05/13 00:54:29;;;;;;;8.90;5.05;;;;;;;;;;5121561;27;20101;-57
2023/05/13 00:56:57;;;;;;;8.25;4.32;;;;;;;;;;5121677;27;20101;-55
2023/05/13 00:59:24;;;;;;;4.80;4.40;;;;;;;;;;5119759;27;20110;-57
2023/05/13 01:02:08;;;;;;;7.07;4.75;;;;;;;;;;5121715;27;20055;-57
2023/05/13 01:04:34;;;;;;;7.80;4.60;;;;;;;;;;5121480;27;20056;-57
2023/05/13 01:07:13;;;;;;;8.13;4.90;;;;;;;;;;5124193;27;20051;-57
2023/05/13 01:09:46;;;;;;;9.38;5.20;;;;;;;;;;5120833;27;20052;-57
2023/05/13 01:12:16;;;;;;;7.97;5.22;;;;;;;;;;5118162;27;20056;-57
2023/05/13 01:15:12;;;;;;;7.93;5.03;;;;;;;;;;5115986;27;20537;-56
2023/05/13 01:17:57;;;;;;;7.78;5.47;;;;;;;;;;5106318;27;20051;-58
2023/05/13 01:20:25;;;;;;;7.80;5.53;;;;;;;;;;5121113;27;20052;-54
2023/05/13 01:22:52;;;;;;;6.70;5.07;;;;;;;;;;5118754;27;20135;-57
2023/05/13 01:25:18;;;;;;;7.28;5.97;;;;;;;;;;5122311;27;21112;-56
2023/05/13 01:27:45;;;;;;;6.70;5.68;;;;;;;;;;5125339;27;20505;-57
2023/05/13 01:30:11;;;;;;;6.13;5.45;;;;;;;;;;5123725;27;20051;-58
2023/05/13 01:32:38;;;;;;;7.72;5.93;;;;;;;;;;5123866;27;20056;-55
2023/05/13 01:35:05;;;;;;;9.90;6.10;;;;;;;;;;5124650;27;20059;-57
2023/05/13 01:37:32;;;;;;;6.70;5.40;;;;;;;;;;5127082;27;20055;-57
2023/05/13 01:39:58;;;;;;;10.77;6.32;;;;;;;;;;5124572;27;20055;-57
2023/05/13 01:42:26;;;;;;;11.90;5.80;;;;;;;;;;5124859;27;20055;-57
2023/05/13 01:44:53;;;;;;;11.32;6.25;;;;;;;;;;5124264;27;20485;-55
2023/05/13 01:47:19;;;;;;;7.40;6.20;;;;;;;;;;5123615;27;20146;-58
2023/05/13 01:49:45;;;;;;;9.73;6.10;;;;;;;;;;5125429;27;20163;-56
2023/05/13 01:52:12;;;;;;;7.95;6.55;;;;;;;;;;5115501;27;20055;-59
2023/05/13 01:54:38;;;;;;;9.55;6.80;;;;;;;;;;5124582;27;20063;-54
2023/05/13 01:57:04;;;;;;;7.22;6.53;;;;;;;;;;5123589;27;20047;-56
2023/05/13 01:59:31;;;;;;;8.10;6.85;;;;;;;;;;5118328;27;20048;-59
2023/05/13 02:01:57;;;;;;;9.90;8.05;;;;;;;;;;5128141;27;20052;-59
2023/05/13 02:04:23;;;;;;;7.13;6.45;;;;;;;;;;5121182;27;20058;-57
2023/05/13 02:06:50;;;;;;;9.35;7.30;;;;;;;;;;5123472;27;20051;-59
2023/05/13 02:09:16;;;;;;;8.80;7.10;;;;;;;;;;5122297;27;20051;-57
2023/05/13 02:11:43;;;;;;;10.80;7.32;;;;;;;;;;5116481;27;20609;-57
2023/05/13 02:14:10;;;;;;;10.38;7.38;;;;;;;;;;5123928;27;20055;-56
2023/05/13 02:16:36;;;;;;;8.82;7.15;;;;;;;;;;5124888;27;20138;-56
2023/05/13 02:19:03;;;;;;;11.63;7.35;;;;;;;;;;5124080;27;20872;-56
2023/05/13 02:21:30;;;;;;;11.45;7.15;;;;;;;;;;5124447;27;20052;-56
2023/05/13 02:23:56;;;;;;;7.95;7.15;;;;;;;;;;5119324;27;20548;-59
2023/05/13 02:26:23;;;;;;;11.15;7.43;;;;;;;;;;5123767;27;20056;-59
2023/05/13 02:28:49;;;;;;;8.60;7.25;;;;;;;;;;5123770;27;20493;-58
2023/05/13 02:31:15;;;;;;;11.05;7.50;;;;;;;;;;5124276;27;20059;-59
2023/05/13 02:33:42;;;;;;;8.23;7.18;;;;;;;;;;5122505;27;20054;-59
2023/05/13 02:36:08;;;;;;;8.07;7.05;;;;;;;;;;5117679;27;20197;-59
2023/05/13 02:38:34;;;;;;;9.82;7.38;;;;;;;;;;5122846;27;20055;-57
2023/05/13 02:41:01;;;;;;;10.38;7.25;;;;;;;;;;5123526;27;20048;-59
2023/05/13 02:43:27;;;;;;;8.32;7.55;;;;;;;;;;5123751;27;20051;-59
2023/05/13 02:45:53;;;;;;;9.60;7.25;;;;;;;;;;5124343;27;20051;-60
2023/05/13 02:48:20;;;;;;;9.80;8.10;;;;;;;;;;5123510;27;20591;-58
2023/05/13 02:50:46;;;;;;;11.32;7.97;;;;;;;;;;5122259;27;20047;-59
2023/05/13 02:53:12;;;;;;;9.40;8.07;;;;;;;;;;5123477;27;20125;-59
2023/05/13 02:55:39;;;;;;;12.30;7.85;;;;;;;;;;5123336;27;20059;-59
2023/05/13 02:58:07;;;;;;;12.73;7.57;;;;;;;;;;5123187;27;20052;-56
2023/05/13 03:00:33;;;;;;;9.75;7.45;;;;;;;;;;5122833;27;20127;-60
2023/05/13 03:02:59;;;;;;;11.57;8.63;;;;;;;;;;5127688;27;20055;-58
2023/05/13 03:05:26;;;;;;;11.13;8.93;;;;;;;;;;5111162;27;20083;-57
2023/05/13 03:07:56;;;;;;;9.75;8.27;;;;;;;;;;5123196;27;20097;-58
2023/05/13 03:10:23;;;;;;;9.27;8.32;;;;;;;;;;5123967;27;20138;-56
2023/05/13 03:12:49;;;;;;;9.63;8.63;;;;;;;;;;5119356;27;20064;-58
2023/05/13 03:15:16;;;;;;;11.38;8.60;;;;;;;;;;5124652;27;20048;-57
2023/05/13 03:17:43;;;;;;;11.70;8.70;;;;;;;;;;5118723;27;20582;-56
2023/05/13 03:20:10;;;;;;;9.38;8.35;;;;;;;;;;5122725;27;22079;-58
2023/05/13 03:22:37;;;;;;;10.02;8.25;;;;;;;;;;5122204;27;20070;-59
2023/05/13 03:25:07;;;;;;;11.50;8.45;;;;;;;;;;5124890;27;20070;-53
2023/05/13 03:27:33;;;;;;;12.82;8.38;;;;;;;;;;5121410;27;20043;-55
2023/05/13 03:29:59;;;;;;;11.60;8.68;;;;;;;;;;5120121;27;20520;-55
2023/05/13 03:32:29;;;;;;;12.52;8.40;;;;;;;;;;5123990;27;20056;-55
2023/05/13 03:34:56;;;;;;;10.13;8.45;;;;;;;;;;5123242;27;20051;-58
2023/05/13 03:37:23;;;;;;;14.35;9.43;;;;;;;;;;5121946;27;20062;-53
2023/05/13 03:39:49;;;;;;;12.60;9.23;;;;;;;;;;5124039;27;20058;-57
2023/05/13 03:42:16;;;;;;;13.82;9.55;;;;;;;;;;5116642;27;20051;-57
2023/05/13 03:44:42;;;;;;;11.77;9.60;;;;;;;;;;5122757;27;20058;-58
2023/05/13 03:47:09;;;;;;;14.63;9.70;;;;;;;;;;5123399;27;20055;-58
2023/05/13 03:49:36;;;;;;;13.50;10.82;;;;;;;;;;5121652;27;20051;-58
2023/05/13 03:52:03;;;;;;;13.90;9.95;;;;;;;;;;5121614;27;20094;-55
2023/05/13 03:54:29;;;;;;;10.82;9.60;;;;;;;;;;5121504;27;20047;-57
2023/05/13 03:56:55;;;;;;;11.10;10.05;;;;;;;;;;5120593;27;20174;-57
2023/05/13 03:59:21;;;;;;;10.82;9.50;;;;;;;;;;5121156;27;20059;-59
2023/05/13 04:01:48;;;;;;;11.57;9.93;;;;;;;;;;5125813;27;20054;-54
2023/05/13 04:04:14;;;;;;;11.18;9.63;;;;;;;;;;5115139;27;20732;-54
2023/05/13 04:06:40;;;;;;;13.23;10.02;;;;;;;;;;5119324;27;20134;-58
2023/05/13 04:09:07;;;;;;;15.00;9.32;;;;;;;;;;5122911;27;20510;-57
2023/05/13 04:11:33;;;;;;;11.10;9.93;;;;;;;;;;5119920;27;20055;-57
2023/05/13 04:14:00;;;;;;;11.75;10.32;;;;;;;;;;5120528;27;20063;-56
2023/05/13 04:16:26;;;;;;;12.63;10.43;;;;;;;;;;5122304;27;20526;-58
2023/05/13 04:18:53;;;;;;;11.57;9.48;;;;;;;;;;5124240;27;20051;-58
2023/05/13 04:21:19;;;;;;;14.80;10.82;;;;;;;;;;5122984;27;20060;-58
2023/05/13 04:23:45;;;;;;;11.73;10.00;;;;;;;;;;5121478;27;21413;-58
2023/05/13 04:26:12;;;;;;;12.32;10.48;;;;;;;;;;5123993;27;20052;-54
2023/05/13 04:28:38;;;;;;;11.93;10.73;;;;;;;;;;5122777;27;20047;-58
2023/05/13 04:31:04;;;;;;;14.05;10.27;;;;;;;;;;5121977;27;20047;-52
2023/05/13 04:33:31;;;;;;;14.05;10.63;;;;;;;;;;5121831;27;20052;-56
2023/05/13 04:35:57;;;;;;;13.45;11.50;;;;;;;;;;5123650;27;20496;-58
2023/05/13 04:38:23;;;;;;;15.52;10.82;;;;;;;;;;5119158;27;20052;-53
2023/05/13 04:40:50;;;;;;;18.88;11.10;;;;;;;;;;5122745;27;20633;-56
2023/05/13 04:43:17;;;;;;;12.02;9.95;;;;;;;;;;5120947;27;20143;-59
2023/05/13 04:45:45;;;;;;;11.52;10.32;;;;;;;;;;5121858;27;20097;-59
2023/05/13 04:48:12;;;;;;;12.18;10.57;;;;;;;;;;5121486;27;20514;-56
2023/05/13 04:50:38;;;;;;;12.18;10.48;;;;;;;;;;5123756;27;20056;-57
2023/05/13 04:53:05;;;;;;;11.45;9.73;;;;;;;;;;5112737;27;20055;-54
2023/05/13 04:55:31;;;;;;;17.50;11.35;;;;;;;;;;5118456;27;20182;-59
2023/05/13 04:57:58;;;;;;;11.88;10.32;;;;;;;;;;5122818;27;20134;-56
2023/05/13 05:00:24;;;;;;;12.55;10.07;;;;;;;;;;5123716;27;20552;-57
2023/05/13 05:02:50;;;;;;;13.27;10.52;;;;;;;;;;5128766;27;20062;-56
2023/05/13 05:05:16;;;;;;;12.48;10.35;;;;;;;;;;5124733;27;20058;-59
2023/05/13 05:07:43;;;;;;;13.05;10.38;;;;;;;;;;5124057;27;20060;-58
2023/05/13 05:10:10;;;;;;;11.20;10.00;;;;;;;;;;5118070;27;20048;-56
2023/05/13 05:12:37;;;;;;;16.02;10.43;;;;;;;;;;5124435;27;20055;-59
2023/05/13 05:15:04;;;;;;;12.25;10.05;;;;;;;;;;5123318;27;20047;-59
2023/05/13 05:17:31;;;;;;;16.88;11.05;;;;;;;;;;5118998;27;20542;-57
2023/05/13 05:19:58;;;;;;;12.05;10.38;;;;;;;;;;5120251;27;20469;-59
2023/05/13 05:22:25;;;;;;;12.73;10.13;;;;;;;;;;5117224;27;20074;-59
2023/05/13 05:24:51;;;;;;;12.52;9.93;;;;;;;;;;5125807;27;20137;-57
2023/05/13 05:27:18;;;;;;;11.77;10.38;;;;;;;;;;5119427;27;20574;-57
2023/05/13 05:29:44;;;;;;;12.05;10.10;;;;;;;;;;5118585;27;20450;-58
2023/05/13 05:32:10;;;;;;;12.07;10.02;;;;;;;;;;5125526;27;20047;-57
2023/05/13 05:34:37;;;;;;;13.32;10.43;;;;;;;;;;5124639;27;20055;-57
2023/05/13 05:37:03;;;;;;;17.58;10.43;;;;;;;;;;5123551;27;20048;-55
2023/05/13 05:39:30;;;;;;;12.02;10.10;;;;;;;;;;5135898;27;20058;-56
2023/05/13 05:41:56;;;;;;;13.40;10.55;;;;;;;;;;5124609;27;20055;-59
2023/05/13 05:44:22;;;;;;;15.45;9.25;;;;;;;;;;5126323;27;20051;-59
2023/05/13 05:46:51;;;;;;;11.73;9.43;;;;;;;;;;5124420;27;20051;-58
2023/05/13 05:49:17;;;;;;;11.82;10.57;;;;;;;;;;5124824;27;20052;-58
2023/05/13 05:51:44;;;;;;;12.40;10.07;;;;;;;;;;5124383;27;20557;-56
2023/05/13 05:54:10;;;;;;;13.35;9.80;;;;;;;;;;5125712;27;20154;-58
2023/05/13 05:56:36;;;;;;;11.32;9.75;;;;;;;;;;5117769;27;20047;-58
2023/05/13 05:59:03;;;;;;;12.10;10.55;;;;;;;;;;5117859;27;20048;-59
2023/05/13 06:01:32;;;;;;;16.85;10.27;;;;;;;;;;5117181;27;20047;-59
2023/05/13 06:03:59;;;;;;;19.15;11.45;;;;;;;;;;5123479;27;20346;-56
2023/05/13 06:06:25;;;;;;;15.45;10.55;;;;;;;;;;5124046;27;20494;-57
2023/05/13 06:08:51;;;;;;;11.93;10.10;;;;;;;;;;5126341;27;20062;-56
2023/05/13 06:11:18;;;;;;;15.50;9.82;;;;;;;;;;5118482;27;20052;-56
2023/05/13 06:13:44;;;;;;;13.35;10.05;;;;;;;;;;5125186;27;20504;-55
2023/05/13 06:16:10;;;;;;;12.65;10.25;;;;;;;;;;5122984;27;20135;-56
2023/05/13 06:18:37;;;;;;;15.88;10.18;;;;;;;;;;5120908;27;20147;-56
2023/05/13 06:21:03;;;;;;;12.85;10.00;;;;;;;;;;5124562;27;20169;-58
2023/05/13 06:23:29;;;;;;;12.00;9.75;;;;;;;;;;5121273;27;20055;-57
2023/05/13 06:25:58;;;;;;;17.23;11.20;;;;;;;;;;5124611;27;20538;-53
2023/05/13 06:28:24;;;;;;;17.35;10.75;;;;;;;;;;5119616;27;20086;-59
2023/05/13 06:30:50;;;;;;;14.90;11.00;;;;;;;;;;5119836;27;20047;-59
2023/05/13 06:33:17;;;;;;;12.73;9.50;;;;;;;;;;5122228;27;20138;-57
2023/05/13 06:35:46;;;;;;;15.40;10.65;;;;;;;;;;5121552;27;20430;-56
2023/05/13 06:38:15;;;;;;;11.25;9.45;;;;;;;;;;5122598;27;20047;-55
2023/05/13 06:40:41;;;;;;;11.70;9.30;;;;;;;;;;5124089;27;20074;-59
2023/05/13 06:43:07;;;;;;;12.15;9.15;;;;;;;;;;5121947;27;20118;-59
2023/05/13 06:45:34;;;;;;;15.40;9.85;;;;;;;;;;5116683;27;20078;-56
2023/05/13 06:48:00;;;;;;;15.50;10.88;;;;;;;;;;5124856;27;20048;-58
2023/05/13 06:50:26;;;;;;;14.30;10.20;;;;;;;;;;5131725;27;20051;-54
2023/05/13 06:52:53;;;;;;;12.73;9.90;;;;;;;;;;5125444;27;20057;-58
2023/05/13 06:55:20;;;;;;;12.38;9.40;;;;;;;;;;5122400;27;20051;-56
2023/05/13 06:57:46;;;;;;;13.60;10.07;;;;;;;;;;5120641;27;20106;-55
2023/05/13 07:00:13;;;;;;;13.90;9.77;;;;;;;;;;5123917;27;20059;-58
2023/05/13 07:02:40;;;;;;;16.50;10.93;;;;;;;;;;5118450;27;20063;-56
2023/05/13 07:05:07;;;;;;;11.80;9.77;;;;;;;;;;5107445;27;20118;-56
2023/05/13 07:07:36;;;;;;;13.32;9.60;;;;;;;;;;5126068;27;20434;-56
2023/05/13 07:10:03;;;;;;;11.63;9.25;;;;;;;;;;5125184;27;20051;-55
2023/05/13 07:12:29;;;;;;;11.80;9.23;;;;;;;;;;5122197;27;20532;-59
2023/05/13 07:14:55;;;;;;;13.45;8.88;;;;;;;;;;5123117;27;20060;-58
2023/05/13 07:17:22;;;;;;;10.57;9.15;;;;;;;;;;5124082;27;20048;-59
2023/05/13 07:19:48;;;;;;;13.07;9.25;;;;;;;;;;5117457;27;20058;-57
2023/05/13 07:22:14;;;;;;;15.93;9.20;;;;;;;;;;5115552;27;20084;-58
2023/05/13 07:24:41;;;;;;;11.77;9.00;;;;;;;;;;5110241;27;20047;-58
2023/05/13 07:27:07;;;;;;;12.32;8.80;;;;;;;;;;5121581;27;20093;-58
2023/05/13 07:29:33;;;;;;;13.93;9.32;;;;;;;;;;5125184;27;20057;-58
2023/05/13 07:32:06;;;;;;;12.27;9.05;;;;;;;;;;5122060;27;20766;-57
2023/05/13 07:34:32;;;;;;;13.77;9.05;;;;;;;;;;5122231;27;20098;-56
2023/05/13 07:36:59;;;;;;;12.07;9.35;;;;;;;;;;5124755;27;20408;-56
2023/05/13 07:39:25;;;;;;;12.50;9.25;;;;;;;;;;5122677;27;20058;-56
2023/05/13 07:41:52;;;;;;;10.52;8.82;;;;;;;;;;5116183;27;20482;-58
2023/05/13 07:44:18;;;;;;;9.88;8.88;;;;;;;;;;5114657;27;20523;-57
2023/05/13 07:46:46;;;;;;;10.13;9.02;;;;;;;;;;5122936;27;20048;-57
2023/05/13 07:49:13;;;;;;;11.65;8.57;;;;;;;;;;5114360;27;20513;-58
2023/05/13 07:51:40;;;;;;;17.77;10.50;;;;;;;;;;5124763;27;20047;-58
2023/05/13 07:54:07;;;;;;;13.88;9.50;;;;;;;;;;5125976;27;20109;-59
2023/05/13 07:56:33;;;;;;;14.27;9.23;;;;;;;;;;5124421;27;20048;-57
2023/05/13 07:59:00;;;;;;;14.13;8.80;;;;;;;;;;5112337;27;20568;-57
2023/05/13 08:01:27;;;;;;;12.00;9.18;;;;;;;;;;5125038;27;20204;-56
2023/05/13 08:03:53;;;;;;;9.07;8.18;;;;;;;;;;5123792;27;20079;-59
2023/05/13 08:06:20;;;;;;;11.63;8.57;;;;;;;;;;5124201;27;20051;-58
2023/05/13 08:08:46;;;;;;;11.82;9.25;;;;;;;;;;5123813;27;20457;-54
2023/05/13 08:11:12;;;;;;;15.10;9.02;;;;;;;;;;5123587;27;20511;-58
2023/05/13 08:13:39;;;;;;;12.80;9.77;;;;;;;;;;5123634;27;20047;-59
2023/05/13 08:16:06;;;;;;;13.65;9.57;;;;;;;;;;5121858;27;20070;-58
2023/05/13 08:18:32;;;;;;;12.13;10.10;;;;;;;;;;5121174;27;20078;-58
2023/05/13 08:20:58;;;;;;;12.85;8.65;;;;;;;;;;5113308;27;20143;-58
2023/05/13 08:23:25;;;;;;;9.63;8.63;;;;;;;;;;5123243;27;20449;-57
2023/05/13 08:26:09;;;;;;;9.45;8.20;;;;;;;;;;5122500;27;20056;-59
2023/05/13 08:28:36;;;;;;;11.88;9.60;;;;;;;;;;5122052;27;20059;-56
2023/05/13 08:31:03;;;;;;;10.93;8.90;;;;;;;;;;5120926;27;20056;-58
2023/05/13 08:33:29;;;;;;;15.20;9.68;;;;;;;;;;5124748;27;20517;-55
2023/05/13 08:35:56;;;;;;;9.70;8.38;;;;;;;;;;5121879;27;20056;-53
2023/05/13 08:38:22;;;;;;;12.00;8.73;;;;;;;;;;5122729;27;20051;-57
2023/05/13 08:40:49;;;;;;;12.50;8.85;;;;;;;;;;5125766;27;20061;-57
2023/05/13 08:43:15;;;;;;;11.77;9.32;;;;;;;;;;5124444;27;20060;-55
2023/05/13 08:45:44;;;;;;;10.90;8.77;;;;;;;;;;5122112;27;20052;-59
2023/05/13 08:48:12;;;;;;;13.07;9.85;;;;;;;;;;5118973;27;20056;-39
2023/05/13 08:50:39;;;;;;;13.57;9.18;;;;;;;;;;5114980;27;20044;-60
2023/05/13 08:53:05;;;;;;;13.45;9.90;;;;;;;;;;5113506;27;20063;-57
2023/05/13 08:55:32;;;;;;;10.85;9.75;;;;;;;;;;5121423;27;20143;-34
2023/05/13 08:57:59;;;;;;;13.02;8.77;;;;;;;;;;5117964;27;20753;-58
2023/05/13 09:00:25;;;;;;;10.70;9.60;;;;;;;;;;5122548;27;20549;-57
2023/05/13 09:02:51;;;;;;;11.55;8.52;;;;;;;;;;5103405;27;20055;-57
2023/05/13 09:05:18;;;;;;;10.43;8.50;;;;;;;;;;5115353;27;20051;-57
2023/05/13 09:07:45;;;;;;;10.57;8.82;;;;;;;;;;5121614;27;20051;-60
2023/05/13 09:10:12;;;;;;;10.80;9.07;;;;;;;;;;5123586;27;20048;-58
2023/05/13 09:12:42;;;;;;;10.75;9.52;;;;;;;;;;5123991;27;20055;-57
2023/05/13 09:15:09;;;;;;;13.93;9.45;;;;;;;;;;5143385;27;20411;-61
2023/05/13 09:17:37;;;;;;;13.23;9.02;;;;;;;;;;5123731;27;20194;-59
2023/05/13 09:20:07;;;;;;;14.30;9.27;;;;;;;;;;5111883;27;20059;-59
2023/05/13 09:22:34;;;;;;;10.82;9.38;;;;;;;;;;5117343;27;20143;-54
2023/05/13 09:25:00;;;;;;;12.43;9.38;;;;;;;;;;5108749;27;20047;-61
2023/05/13 09:27:37;;;;;;;10.80;9.02;;;;;;;;;;5121068;27;20051;-59
2023/05/13 09:30:04;;;;;;;10.60;8.70;;;;;;;;;;5113015;27;20075;-58
2023/05/13 09:32:30;;;;;;;9.43;7.78;;;;;;;;;;5115374;27;20079;-61
2023/05/13 09:35:06;;;;;;;10.18;8.13;;;;;;;;;;5123448;27;20173;-58
2023/05/13 09:37:33;;;;;;;11.15;8.05;;;;;;;;;;5122632;27;20044;-55
2023/05/13 09:39:59;;;;;;;12.77;9.23;;;;;;;;;;5123041;27;20047;-57
2023/05/13 09:42:25;;;;;;;9.55;8.40;;;;;;;;;;5121640;27;20051;-58
2023/05/13 09:44:52;;;;;;;12.18;9.38;;;;;;;;;;5121547;27;20135;-58
2023/05/13 09:47:18;;;;;;;9.02;7.80;;;;;;;;;;5123242;27;20359;-57
2023/05/13 09:49:51;;;;;;;13.98;8.50;;;;;;;;;;5125283;27;20052;-59
2023/05/13 09:52:18;;;;;;;9.55;8.40;;;;;;;;;;5119675;27;20515;-58
2023/05/13 09:54:44;;;;;;;8.63;7.82;;;;;;;;;;5121746;27;20683;-58
2023/05/13 09:57:11;;;;;;;13.02;8.38;;;;;;;;;;5123978;27;20052;-59
2023/05/13 09:59:38;;;;;;;8.55;7.65;;;;;;;;;;5125026;27;20051;-59
2023/05/13 10:02:05;;;;;;;9.00;7.95;;;;;;;;;;5126571;27;20254;-59
2023/05/13 10:04:32;;;;;;;10.35;7.65;;;;;;;;;;5125499;27;20058;-59
2023/05/13 10:07:00;;;;;;;10.60;7.57;;;;;;;;;;5124363;27;20603;-59
2023/05/13 10:09:27;;;;;;;10.75;7.75;;;;;;;;;;5126983;27;20048;-59
2023/05/13 10:11:54;;;;;;;12.68;8.60;;;;;;;;;;5126328;27;20055;-60
2023/05/13 10:14:21;;;;;;;12.50;8.65;;;;;;;;;;5125398;27;20052;-59
2023/05/13 10:16:47;;;;;;;9.75;7.95;;;;;;;;;;5118342;27;20052;-59
2023/05/13 10:19:14;;;;;;;11.52;7.25;;;;;;;;;;5120533;27;20055;-60
2023/05/13 10:21:41;;;;;;;7.10;6.38;;;;;;;;;;5124495;27;20139;-59
2023/05/13 10:24:08;;;;;;;11.27;8.48;;;;;;;;;;5125622;27;20055;-59
2023/05/13 10:26:35;;;;;;;9.30;7.30;;;;;;;;;;5119842;27;20052;-32
2023/05/13 10:29:02;;;;;;;8.18;7.15;;;;;;;;;;5123285;27;20088;-58
2023/05/13 10:31:29;;;;;;;9.73;6.93;;;;;;;;;;5123241;27;20097;-56
2023/05/13 10:33:55;;;;;;;11.05;7.18;;;;;;;;;;5124466;27;20068;-54
2023/05/13 10:36:37;;;;;;;15.50;7.30;;;;;;;;;;5124313;27;20051;-55
2023/05/13 10:39:03;;;;;;;7.60;6.72;;;;;;;;;;5122946;27;20047;-55
2023/05/13 10:41:39;;;;;;;7.72;5.35;;;;;;;;;;5121039;27;20536;-57
2023/05/13 10:44:06;;;;;;;6.68;6.00;;;;;;;;;;5123941;27;20056;-56
2023/05/13 10:46:38;;;;;;;8.95;7.10;;;;;;;;;;5119065;27;20051;-56
2023/05/13 10:49:05;;;;;;;8.45;6.50;;;;;;;;;;5109941;27;20601;-58
2023/05/13 10:51:32;;;;;;;9.77;7.30;;;;;;;;;;5120778;27;20105;-58
2023/05/13 10:53:58;;;;;;;11.15;6.97;;;;;;;;;;5117200;27;20061;-57
2023/05/13 10:56:26;;;;;;;10.70;6.90;;;;;;;;;;5119769;27;20052;-59
2023/05/13 10:59:03;;;;;;;6.97;6.03;;;;;;;;;;5120455;27;20105;-57
2023/05/13 11:01:33;;;;;;;7.22;6.45;;;;;;;;;;5123320;27;20051;-57
2023/05/13 11:04:00;;;;;;;7.85;6.50;;;;;;;;;;5131047;27;20052;-57
2023/05/13 11:06:31;;;;;;;7.15;6.20;;;;;;;;;;5125283;27;20062;-57
2023/05/13 11:08:58;;;;;;;6.53;5.88;;;;;;;;;;5124568;27;20530;-56
2023/05/13 11:11:26;;;;;;;7.75;5.22;;;;;;;;;;5123192;27;20676;-58
2023/05/13 11:14:04;;;;;;;5.72;4.60;;;;;;;;;;5116613;27;20101;-58
2023/05/13 11:16:34;;;;;;;12.63;5.10;;;;;;;;;;5114295;27;20101;-58
2023/05/13 11:19:07;;;;;;;8.88;4.97;;;;;;;;;;5124865;27;20480;-58
2023/05/13 11:21:34;;;;;;;7.22;5.00;;;;;;;;;;5112904;27;20052;-58
2023/05/13 11:24:05;;;;;;;7.32;4.90;;;;;;;;;;5124275;27;20059;-60
2023/05/13 11:26:46;;;;;;;6.60;4.68;;;;;;;;;;5124213;27;20062;-60
2023/05/13 11:29:13;;;;;;;6.18;4.22;;;;;;;;;;5124571;27;20407;-60
2023/05/13 11:31:42;;;;;;;5.40;4.28;;;;;;;;;;5123504;27;20056;-60
2023/05/13 11:34:18;;;;;;;12.25;4.60;;;;;;;;;;5122812;27;20056;-60
2023/05/13 11:36:49;;;;;;;8.27;5.20;;;;;;;;;;5122594;27;20047;-60
2023/05/13 11:39:15;;;;;;;5.45;3.60;;;;;;;;;;5118999;27;20081;-61
2023/05/13 11:41:43;;;;;;;7.32;4.30;;;;;;;;;;5113589;27;20194;-56
2023/05/13 11:44:10;;;;;;;7.38;4.32;;;;;;;;;;5116674;27;20044;-34
2023/05/13 11:46:36;;;;;;;12.00;4.15;;;;;;;;;;5111741;27;20059;-46
2023/05/13 11:49:03;;;;;;;6.00;4.18;;;;;;;;;;5114121;27;20048;-60
2023/05/13 11:51:32;;;;;;;6.88;3.85;;;;;;;;;;5114320;27;20039;-53
2023/05/13 11:54:02;;;;;;;6.55;4.07;;;;;;;;;;5108854;27;20593;-59
2023/05/13 11:56:28;;;;;;;6.00;4.22;;;;;;;;;;5121916;27;20063;-59
2023/05/13 11:58:55;;;;;;;5.85;3.95;;;;;;;;;;5122296;27;20563;-60
2023/05/13 12:01:22;;;;;;;7.22;4.18;;;;;;;;;;5121473;27;20063;-61
2023/05/13 12:03:48;;;;;;;5.13;3.22;;;;;;;;;;5122010;27;20109;-62
2023/05/13 12:06:14;;;;;;;4.80;3.75;;;;;;;;;;5122813;27;20142;-62
2023/05/13 12:08:44;;;;;;;6.57;3.38;;;;;;;;;;5122543;27;20996;-62
2023/05/13 12:11:12;;;;;;;7.88;3.53;;;;;;;;;;5122123;27;20048;-53
2023/05/13 12:13:39;;;;;;;9.18;3.33;;;;;;;;;;5122035;27;20056;-62
2023/05/13 12:16:06;;;;;;;5.65;3.33;;;;;;;;;;5124969;27;20097;-61
2023/05/13 12:18:33;;;;;;;4.30;3.13;;;;;;;;;;5122376;27;20052;-62
2023/05/13 12:20:59;;;;;;;3.63;2.80;;;;;;;;;;5123252;27;20502;-62
2023/05/13 12:23:36;;;;;;;5.88;3.05;;;;;;;;;;5122339;27;20051;-61
2023/05/13 12:26:06;;;;;;;7.07;2.70;;;;;;;;;;5123984;27;20490;-61
2023/05/13 12:28:32;;;;;;;3.40;3.10;;;;;;;;;;5123525;27;20109;-62
2023/05/13 12:30:59;;;;;;;7.03;3.03;;;;;;;;;;5122900;27;20086;-60
2023/05/13 12:33:27;;;;;;;6.47;3.50;;;;;;;;;;5121359;27;20059;-60
2023/05/13 12:36:13;;;;;;;4.10;3.28;;;;;;;;;;5122762;27;20059;-59
2023/05/13 12:38:39;;;;;;;6.10;2.88;;;;;;;;;;5120172;27;20105;-60
2023/05/13 12:41:12;;;;;;;7.90;3.30;;;;;;;;;;5122964;27;20055;-60
2023/05/13 12:43:39;;;;;;;5.35;3.40;;;;;;;;;;5109461;27;20185;-60
2023/05/13 12:46:06;;;;;;;7.03;3.10;;;;;;;;;;5122702;27;20081;-55
2023/05/13 12:48:32;;;;;;;5.07;3.08;;;;;;;;;;5120571;27;20058;-55
2023/05/13 12:50:58;;;;;;;11.77;3.22;;;;;;;;;;5119458;27;20052;-33
2023/05/13 12:53:27;;;;;;;4.13;2.88;;;;;;;;;;5119979;27;20056;-61
2023/05/13 12:55:53;;;;;;;9.48;3.13;;;;;;;;;;5120961;27;20055;-59
2023/05/13 12:58:20;;;;;;;4.43;3.05;;;;;;;;;;5122483;27;20052;-61
2023/05/13 13:00:46;;;;;;;7.55;3.60;;;;;;;;;;5107175;27;20052;-60
2023/05/13 13:03:13;;;;;;;3.15;2.85;;;;;;;;;;5102423;27;20102;-61
2023/05/13 13:05:39;;;;;;;4.75;2.85;;;;;;;;;;5117928;27;20051;-62
2023/05/13 13:08:05;;;;;;;5.40;3.17;;;;;;;;;;5120391;27;20138;-61
2023/05/13 13:10:32;;;;;;;6.25;3.25;;;;;;;;;;5109962;27;20505;-61
2023/05/13 13:12:58;;;;;;;6.13;3.53;;;;;;;;;;5123716;27;20048;-61
2023/05/13 13:15:25;;;;;;;4.78;2.63;;;;;;;;;;5122115;27;20051;-61
2023/05/13 13:17:51;;;;;;;5.90;2.83;;;;;;;;;;5121402;27;20087;-61
2023/05/13 13:20:17;;;;;;;3.00;2.70;;;;;;;;;;5118585;27;20051;-60
2023/05/13 13:22:44;;;;;;;5.15;2.92;;;;;;;;;;5126569;27;20578;-60
2023/05/13 13:25:10;;;;;;;4.45;3.30;;;;;;;;;;5117171;27;20570;-60
2023/05/13 13:27:37;;;;;;;5.32;3.30;;;;;;;;;;5114443;27;20048;-60
2023/05/13 13:30:03;;;;;;;5.55;3.22;;;;;;;;;;5122507;27;20052;-60
2023/05/13 13:32:30;;;;;;;4.18;2.92;;;;;;;;;;5126257;27;20512;-59
2023/05/13 13:34:57;;;;;;;4.20;2.83;;;;;;;;;;5126318;27;20136;-60
2023/05/13 13:37:23;;;;;;;4.20;2.95;;;;;;;;;;5114005;27;20143;-59
2023/05/13 13:39:49;;;;;;;2.97;2.50;;;;;;;;;;5120271;27;20051;-60
2023/05/13 13:42:16;;;;;;;3.95;3.05;;;;;;;;;;5124752;27;20084;-60
2023/05/13 13:44:42;;;;;;;4.63;3.15;;;;;;;;;;5127331;27;20068;-59
2023/05/13 13:47:08;;;;;;;4.07;2.97;;;;;;;;;;5119234;27;20388;-60
2023/05/13 13:49:35;;;;;;;6.50;2.90;;;;;;;;;;5116800;27;20063;-60
2023/05/13 13:52:01;;;;;;;4.57;2.80;;;;;;;;;;5122357;27;20474;-56
2023/05/13 13:54:28;;;;;;;5.28;2.88;;;;;;;;;;5124643;27;20060;-53
2023/05/13 13:56:54;;;;;;;4.05;3.10;;;;;;;;;;5124055;27;20070;-54
2023/05/13 13:59:20;;;;;;;3.83;2.60;;;;;;;;;;5125929;27;20310;-61
2023/05/13 14:01:47;;;;;;;5.82;2.70;;;;;;;;;;5125604;27;20067;-61
2023/05/13 14:04:15;;;;;;;3.03;2.67;;;;;;;;;;5125700;27;20062;-60
2023/05/13 14:06:41;;;;;;;4.90;2.70;;;;;;;;;;5125404;27;20249;-58
2023/05/13 14:09:09;;;;;;;4.63;3.05;;;;;;;;;;5124749;27;20558;-59
2023/05/13 14:11:35;;;;;;;5.55;2.53;;;;;;;;;;5123154;27;20056;-59
2023/05/13 14:14:01;;;;;;;5.53;2.80;;;;;;;;;;5106232;27;20059;-58
2023/05/13 14:16:28;;;;;;;3.95;2.80;;;;;;;;;;5122053;27;20435;-61
2023/05/13 14:18:54;;;;;;;4.65;3.10;;;;;;;;;;5124158;27;20056;-60
2023/05/13 14:21:21;;;;;;;3.10;2.67;;;;;;;;;;5117896;27;20717;-59
2023/05/13 14:23:47;;;;;;;4.07;2.40;;;;;;;;;;5133956;27;20082;-59
2023/05/13 14:26:14;;;;;;;3.08;2.65;;;;;;;;;;5123030;27;20138;-61
2023/05/13 14:28:43;;;;;;;4.20;2.65;;;;;;;;;;5119537;27;20047;-60
2023/05/13 14:31:10;;;;;;;3.05;2.72;;;;;;;;;;5119159;27;20051;-58
2023/05/13 14:33:36;;;;;;;4.38;2.67;;;;;;;;;;5120072;27;20063;-60